NCAR-RAP Real-Time Weather Data

Output produced by METARs form (24 April 2018  16:10 UTC)
found at http://weather.rap.ucar.edu/surface/
 
RJCN 240900Z 15004KT 9999 FEW025 BKN/// 08/04 Q1017
RJCN 240800Z 16007KT 9999 FEW035 BKN/// 10/04 Q1017
RJCN 240700Z 16008KT 130V190 9999 FEW035 BKN/// 11/04 Q1017
RJCN 240600Z 16009KT 120V190 9999 FEW035 BKN/// 12/04 Q1017
RJCN 240500Z 13008KT 9999 FEW035 BKN/// 13/03 Q1018
RJCN 240400Z 21008KT 170V250 9999 FEW025 SCT040 BKN/// 12/02 Q1018
RJCN 240300Z 20010KT 9999 FEW030 BKN/// 12/01 Q1019
RJCN 240200Z 24010KT 9999 FEW020 BKN030 BKN/// 11/03 Q1021
RJCN 240100Z 22008KT 180V260 9999 FEW012 BKN020 BKN/// 09/04 Q1022
RJCN 240000Z 23010KT 9999 FEW010 BKN012 08/04 Q1022
RJCN 232330Z 22010KT 9999 FEW010 BKN012 07/04 Q1023
RJCN 230900Z 06009KT 9999 FEW050 BKN/// 05/M02 Q1025
RJCN 230800Z 03008KT 9999 FEW040 BKN/// 09/M02 Q1024
RJCN 230700Z 06010KT 9999 FEW030 BKN060 11/M01 Q1024
RJCN 230600Z 06010KT 9999 FEW030 BKN060 11/M01 Q1023
RJCN 230500Z 08009KT 050V110 9999 FEW035 SCT060 13/M01 Q1023
RJCN 230400Z 05010KT 010V090 9999 FEW035 SCT060 15/M00 Q1023
RJCN 230300Z 32007KT 230V010 9999 FEW035 SCT060 16/M04 Q1023
RJCN 230200Z 22007KT 180V290 9999 FEW035 SCT060 14/01 Q1024
RJCN 230100Z 22006KT 160V270 9999 FEW035 12/01 Q1024
RJCN 230000Z 24008KT 9999 FEW030 10/03 Q1025
RJCN 222330Z 23005KT 190V270 9999 FEW040 07/02 Q1025
RJCN 220900Z 06007KT 9999 FEW025 SCT060 BKN080 02/M03 Q1022
RJCN 220800Z 08011KT 9999 FEW025 BKN080 03/M02 Q1022
RJCN 220700Z 08009KT 9999 FEW025 SCT080 05/M01 Q1021
RJCN 220600Z 06013KT 9999 FEW025 BKN/// 07/M00 Q1019
RJCN 220500Z 04014KT 9999 FEW025 BKN/// 08/00 Q1019